createdAt,value
2023-05-25T00:02:15.263Z,46.13
2023-05-25T00:04:42.174Z,39.25
2023-05-25T00:07:08.729Z,40.40
2023-05-25T00:09:35.562Z,43.50
2023-05-25T00:12:02.744Z,38.20
2023-05-25T00:14:30.901Z,40.22
2023-05-25T00:16:58.290Z,38.45
2023-05-25T00:19:25.051Z,45.78
2023-05-25T00:21:52.517Z,41.67
2023-05-25T00:24:19.022Z,47.10
2023-05-25T00:26:45.683Z,46.72
2023-05-25T00:29:12.614Z,41.58
2023-05-25T00:31:39.224Z,47.22
2023-05-25T00:34:05.724Z,49.55
2023-05-25T00:36:32.117Z,46.22
2023-05-25T00:38:58.623Z,44.10
2023-05-25T00:41:27.097Z,40.08
2023-05-25T00:43:53.538Z,42.08
2023-05-25T00:46:20.074Z,47.38
2023-05-25T00:48:46.567Z,39.88
2023-05-25T00:51:15.690Z,42.53
2023-05-25T00:53:42.272Z,42.45
2023-05-25T00:56:16.670Z,40.20
2023-05-25T00:58:44.848Z,39.95
2023-05-25T01:01:12.358Z,41.92
2023-05-25T01:03:42.913Z,45.17
2023-05-25T01:06:14.363Z,43.38
2023-05-25T01:08:49.719Z,35.65
2023-05-25T01:11:17.271Z,34.05
2023-05-25T01:13:44.498Z,31.63
2023-05-25T01:16:11.418Z,30.98
2023-05-25T01:18:41.751Z,30.45
2023-05-25T01:21:22.006Z,32.42
2023-05-25T01:24:12.068Z,28.50
2023-05-25T01:26:48.516Z,31.90
2023-05-25T01:29:17.505Z,30.65
2023-05-25T01:31:45.665Z,32.65
2023-05-25T01:34:13.843Z,30.10
2023-05-25T01:36:40.320Z,28.33
2023-05-25T01:39:07.514Z,29.67
2023-05-25T01:41:33.896Z,28.88
2023-05-25T01:44:00.821Z,26.92
2023-05-25T01:46:33.804Z,29.75
2023-05-25T01:49:18.780Z,30.80
2023-05-25T01:52:00.651Z,26.02
2023-05-25T01:54:35.719Z,24.58
2023-05-25T01:57:06.464Z,25.05
2023-05-25T01:59:33.970Z,26.60
2023-05-25T02:02:01.607Z,25.45
2023-05-25T02:04:29.303Z,26.67
2023-05-25T02:06:55.864Z,28.00
2023-05-25T02:09:22.451Z,31.05
2023-05-25T02:11:49.322Z,34.20
2023-05-25T02:14:16.585Z,32.05
2023-05-25T02:16:45.908Z,34.35
2023-05-25T02:19:14.900Z,32.20
2023-05-25T02:21:44.406Z,33.65
2023-05-25T02:24:10.998Z,34.17
2023-05-25T02:26:38.726Z,33.45
2023-05-25T02:29:06.479Z,34.03
2023-05-25T02:31:33.059Z,32.15
2023-05-25T02:33:59.501Z,30.35
2023-05-25T02:36:26.119Z,32.22
2023-05-25T02:38:52.520Z,33.13
2023-05-25T02:41:22.333Z,30.35
2023-05-25T02:43:48.845Z,33.13
2023-05-25T02:46:15.394Z,34.97
2023-05-25T02:48:42.772Z,35.83
2023-05-25T02:51:09.350Z,35.53
2023-05-25T02:53:36.500Z,37.33
2023-05-25T02:56:04.919Z,37.75
2023-05-25T02:58:31.577Z,39.63
2023-05-25T03:01:00.129Z,39.20
2023-05-25T03:03:27.762Z,38.40
2023-05-25T03:05:55.044Z,39.20
2023-05-25T03:08:21.505Z,40.40
2023-05-25T03:10:48.131Z,38.72
2023-05-25T03:13:15.046Z,39.50
2023-05-25T03:15:41.593Z,40.83
2023-05-25T03:18:08.061Z,39.17
2023-05-25T03:20:34.790Z,41.47
2023-05-25T03:23:01.420Z,48.63
2023-05-25T03:25:27.810Z,48.50
2023-05-25T03:27:54.743Z,45.90
2023-05-25T03:30:22.822Z,48.92
2023-05-25T03:32:49.314Z,46.85
2023-05-25T03:35:16.037Z,46.45
2023-05-25T03:37:42.436Z,49.38
2023-05-25T03:40:09.560Z,48.35
2023-05-25T03:42:36.757Z,49.70
2023-05-25T03:45:03.294Z,59.22
2023-05-25T03:47:29.698Z,48.08
2023-05-25T03:49:56.261Z,56.95
2023-05-25T03:52:22.733Z,55.33
2023-05-25T03:54:49.305Z,52.80
2023-05-25T03:57:15.719Z,56.60
2023-05-25T03:59:42.124Z,54.47
2023-05-25T04:02:08.546Z,54.72
2023-05-25T04:04:35.074Z,56.65
2023-05-25T04:07:01.652Z,61.33
2023-05-25T04:09:28.124Z,65.47
2023-05-25T04:11:54.528Z,63.75
2023-05-25T04:14:21.593Z,62.85
2023-05-25T04:16:48.142Z,67.45
2023-05-25T04:19:14.721Z,66.68
2023-05-25T04:21:41.269Z,70.63
2023-05-25T04:24:07.795Z,72.10
2023-05-25T04:29:41.944Z,69.10
2023-05-25T04:32:14.473Z,72.00
2023-05-25T04:34:42.284Z,78.15
2023-05-25T04:37:08.950Z,76.47
2023-05-25T04:39:35.593Z,72.30
2023-05-25T04:42:04.521Z,71.97
2023-05-25T04:44:31.923Z,75.20
2023-05-25T04:47:02.466Z,73.65
2023-05-25T04:49:28.866Z,74.18
2023-05-25T04:51:56.109Z,75.32
2023-05-25T04:54:22.524Z,74.68
2023-05-25T04:56:49.089Z,78.93
2023-05-25T04:59:15.668Z,77.57
2023-05-25T05:01:44.659Z,72.15
2023-05-25T05:04:11.536Z,76.38
2023-05-25T05:06:38.774Z,81.57
2023-05-25T05:09:05.193Z,81.78
2023-05-25T05:11:31.585Z,92.00
2023-05-25T05:14:30.461Z,94.07
2023-05-25T05:16:56.908Z,91.40
2023-05-25T05:19:23.480Z,89.57
2023-05-25T05:21:49.871Z,89.88
2023-05-25T05:24:16.261Z,94.63
2023-05-25T05:26:56.234Z,87.55
2023-05-25T05:29:24.381Z,89.07
2023-05-25T05:31:51.003Z,96.00
2023-05-25T05:34:17.614Z,98.53
2023-05-25T05:36:56.600Z,103.88
2023-05-25T05:39:24.203Z,102.15
2023-05-25T05:41:50.771Z,102.43
2023-05-25T05:44:17.143Z,101.88
2023-05-25T05:46:43.833Z,107.57
2023-05-25T05:49:10.343Z,99.30
2023-05-25T05:51:36.885Z,97.80
2023-05-25T05:54:03.924Z,109.75
2023-05-25T05:56:30.350Z,102.07
2023-05-25T05:58:56.879Z,108.00
2023-05-25T06:01:23.633Z,100.20
2023-05-25T06:03:50.264Z,102.70
2023-05-25T06:06:16.722Z,92.50
2023-05-25T06:08:43.805Z,74.72
2023-05-25T06:11:10.199Z,74.68
2023-05-25T06:13:36.583Z,75.30
2023-05-25T06:16:03.060Z,69.60
2023-05-25T06:18:29.486Z,70.60
2023-05-25T06:20:55.857Z,64.28
2023-05-25T06:23:22.267Z,62.58
2023-05-25T06:25:48.639Z,59.85
2023-05-25T06:28:15.285Z,68.47
2023-05-25T06:30:41.732Z,65.97
2023-05-25T06:33:08.691Z,65.55
2023-05-25T06:35:35.149Z,70.72
2023-05-25T06:38:01.844Z,63.25
2023-05-25T06:40:28.211Z,60.58
2023-05-25T06:42:54.982Z,63.17
2023-05-25T06:45:21.504Z,66.70
2023-05-25T06:47:47.952Z,63.42
2023-05-25T06:50:14.367Z,63.20
2023-05-25T06:52:40.761Z,62.08
2023-05-25T06:55:08.429Z,57.78
2023-05-25T06:57:34.910Z,56.40
2023-05-25T07:00:01.801Z,59.20
2023-05-25T07:02:28.198Z,49.78
2023-05-25T07:04:55.349Z,55.13
2023-05-25T07:07:22.438Z,55.60
2023-05-25T07:09:48.938Z,49.03
2023-05-25T07:12:15.333Z,47.08
2023-05-25T07:14:41.755Z,44.95
2023-05-25T07:17:08.306Z,50.40
2023-05-25T07:19:34.720Z,50.17
2023-05-25T07:22:01.092Z,49.95
2023-05-25T07:24:27.610Z,41.38
2023-05-25T07:26:53.994Z,41.53
2023-05-25T07:29:20.440Z,38.53
2023-05-25T07:31:47.015Z,34.80
2023-05-25T07:34:13.447Z,33.17
2023-05-25T07:36:39.892Z,36.10
2023-05-25T07:39:06.618Z,32.33
2023-05-25T07:41:33.699Z,34.20
2023-05-25T07:44:00.132Z,29.33
2023-05-25T07:46:26.618Z,31.75
2023-05-25T07:48:54.465Z,30.42
2023-05-25T07:51:23.344Z,26.77
2023-05-25T07:53:49.832Z,31.60
2023-05-25T07:56:16.444Z,31.08
2023-05-25T07:58:42.860Z,31.75
2023-05-25T08:01:09.272Z,31.42
2023-05-25T08:03:48.107Z,33.35
2023-05-25T08:06:15.752Z,26.05
2023-05-25T08:08:44.803Z,27.63
2023-05-25T08:11:11.790Z,23.05
2023-05-25T08:13:38.937Z,23.98
2023-05-25T08:16:05.475Z,27.70
2023-05-25T08:18:34.839Z,29.95
2023-05-25T08:21:01.242Z,25.38
2023-05-25T08:23:27.681Z,25.15
2023-05-25T08:25:54.152Z,23.92
2023-05-25T08:28:21.669Z,27.02
2023-05-25T08:30:48.258Z,27.58
2023-05-25T08:33:14.902Z,21.90
2023-05-25T08:35:42.877Z,20.25
2023-05-25T08:38:09.520Z,17.85
2023-05-25T08:40:36.109Z,18.33
2023-05-25T08:43:02.536Z,17.98
2023-05-25T08:45:35.543Z,26.08
2023-05-25T08:48:09.559Z,22.23
2023-05-25T08:50:38.494Z,21.47
2023-05-25T08:53:08.232Z,19.30
2023-05-25T08:55:37.658Z,21.02
2023-05-25T08:58:16.699Z,24.63
2023-05-25T09:00:55.035Z,20.50
2023-05-25T09:03:22.101Z,17.38
2023-05-25T09:05:50.088Z,23.25
2023-05-25T09:08:17.885Z,26.52
2023-05-25T09:10:44.560Z,18.45
2023-05-25T09:13:21.391Z,21.02
2023-05-25T09:15:49.885Z,19.90
2023-05-25T09:18:16.377Z,18.27
2023-05-25T09:20:46.207Z,17.38
2023-05-25T09:23:14.343Z,17.88
2023-05-25T09:25:41.553Z,16.15
2023-05-25T09:28:25.627Z,18.13
2023-05-25T09:30:53.983Z,17.55
2023-05-25T09:33:20.978Z,14.02
2023-05-25T09:35:47.867Z,15.25
2023-05-25T09:38:16.357Z,17.33
2023-05-25T09:40:44.101Z,14.40
2023-05-25T09:43:14.412Z,15.63
2023-05-25T09:45:46.479Z,13.57
2023-05-25T09:48:13.551Z,13.30
2023-05-25T09:50:40.073Z,14.65
2023-05-25T09:53:07.313Z,14.23
2023-05-25T09:55:44.298Z,14.45
2023-05-25T09:58:18.370Z,16.08
2023-05-25T10:00:46.190Z,14.68
2023-05-25T10:03:15.087Z,17.10
2023-05-25T10:05:41.848Z,14.90
2023-05-25T10:08:10.437Z,12.05
2023-05-25T10:10:38.998Z,12.05
2023-05-25T10:13:08.056Z,13.15
2023-05-25T10:15:36.436Z,13.80
2023-05-25T10:18:03.866Z,12.77
2023-05-25T10:20:56.261Z,12.88
2023-05-25T10:23:20.586Z,12.18
2023-05-25T10:25:51.063Z,11.38
2023-05-25T10:28:25.501Z,13.93
2023-05-25T10:30:53.361Z,13.55
2023-05-25T10:33:21.334Z,11.95
2023-05-25T10:36:02.455Z,14.32
2023-05-25T10:38:36.087Z,10.45
2023-05-25T10:41:04.398Z,10.13
2023-05-25T10:43:31.194Z,10.10
2023-05-25T10:45:57.875Z,11.45
2023-05-25T10:48:35.610Z,12.95
2023-05-25T10:51:02.011Z,9.63
2023-05-25T10:53:28.559Z,9.75
2023-05-25T10:55:54.930Z,10.00
2023-05-25T10:58:23.202Z,10.77
2023-05-25T11:01:01.317Z,10.85
2023-05-25T11:03:48.380Z,11.88
2023-05-25T11:06:23.079Z,12.55
2023-05-25T11:08:57.593Z,14.07
2023-05-25T11:11:42.344Z,10.23
2023-05-25T11:17:10.695Z,10.02
2023-05-25T11:19:52.009Z,9.77
2023-05-25T11:22:35.511Z,11.05
2023-05-25T11:25:03.265Z,10.88
2023-05-25T11:27:31.112Z,9.93
2023-05-25T11:29:58.969Z,9.65
2023-05-25T11:32:26.895Z,11.18
2023-05-25T11:34:54.444Z,12.05
2023-05-25T11:37:22.693Z,12.20
2023-05-25T11:39:50.271Z,10.38
2023-05-25T11:42:17.479Z,9.88
2023-05-25T11:44:44.123Z,8.40
2023-05-25T11:47:14.470Z,9.75
2023-05-25T11:49:42.374Z,8.75
2023-05-25T11:52:09.538Z,12.68
2023-05-25T11:54:36.206Z,9.98
2023-05-25T11:57:03.063Z,7.38
2023-05-25T11:59:32.485Z,8.55
2023-05-25T12:02:03.432Z,8.30
2023-05-25T12:04:32.686Z,7.95
2023-05-25T12:07:06.981Z,8.30
2023-05-25T12:09:34.829Z,8.57
2023-05-25T12:12:03.514Z,9.73
2023-05-25T12:14:30.603Z,10.63
2023-05-25T12:16:57.776Z,10.80
2023-05-25T12:19:24.519Z,10.13
2023-05-25T12:21:51.695Z,10.20
2023-05-25T12:24:19.096Z,9.40
2023-05-25T12:26:59.095Z,8.65
2023-05-25T12:29:26.262Z,9.50
2023-05-25T12:31:52.743Z,8.25
2023-05-25T12:34:26.771Z,9.60
2023-05-25T12:36:56.815Z,12.35
2023-05-25T12:39:29.338Z,9.48
2023-05-25T12:41:57.407Z,9.80
2023-05-25T12:44:31.291Z,8.07
2023-05-25T12:47:13.800Z,9.75
2023-05-25T12:49:45.316Z,11.13
2023-05-25T12:52:30.825Z,9.65
2023-05-25T12:54:57.260Z,12.15
2023-05-25T12:57:35.159Z,9.80
2023-05-25T13:00:01.671Z,9.60
2023-05-25T13:02:28.139Z,9.45
2023-05-25T13:04:54.644Z,8.63
2023-05-25T13:07:22.694Z,8.35
2023-05-25T13:09:49.168Z,8.90
2023-05-25T13:12:15.705Z,8.25
2023-05-25T13:14:42.170Z,8.25
2023-05-25T13:17:08.630Z,12.23
2023-05-25T13:19:35.109Z,8.05
2023-05-25T13:22:01.817Z,10.73
2023-05-25T13:24:31.281Z,9.98
2023-05-25T13:26:57.817Z,12.60
2023-05-25T13:29:25.615Z,13.18
2023-05-25T13:31:52.070Z,9.88
2023-05-25T13:34:18.568Z,8.48
2023-05-25T13:36:47.508Z,8.65
2023-05-25T13:39:14.823Z,11.57
2023-05-25T13:41:41.707Z,13.30
2023-05-25T13:44:08.235Z,9.82
2023-05-25T13:46:37.710Z,8.70
2023-05-25T13:49:04.359Z,9.45
2023-05-25T13:51:31.304Z,10.25
2023-05-25T13:53:58.959Z,10.05
2023-05-25T13:56:25.489Z,10.95
2023-05-25T13:58:52.088Z,10.00
2023-05-25T14:01:18.570Z,11.95
2023-05-25T14:03:45.700Z,11.07
2023-05-25T14:06:12.613Z,10.75
2023-05-25T14:08:39.259Z,10.15
2023-05-25T14:11:05.786Z,10.52
2023-05-25T14:13:33.521Z,10.93
2023-05-25T14:15:59.906Z,9.45
2023-05-25T14:18:26.597Z,12.60
2023-05-25T14:20:53.040Z,12.00
2023-05-25T14:23:19.578Z,10.68
2023-05-25T14:25:48.626Z,10.77
2023-05-25T14:28:15.043Z,9.68
2023-05-25T14:30:41.725Z,11.98
2023-05-25T14:33:08.386Z,8.48
2023-05-25T14:35:34.953Z,8.65
2023-05-25T14:38:04.487Z,8.75
2023-05-25T14:40:30.852Z,9.95
2023-05-25T14:42:57.251Z,10.68
2023-05-25T14:45:23.734Z,11.70
2023-05-25T14:47:55.507Z,8.98
2023-05-25T14:50:29.069Z,10.80
2023-05-25T14:52:56.695Z,9.27
2023-05-25T14:55:23.343Z,9.25
2023-05-25T14:57:49.710Z,8.15
2023-05-25T15:00:16.507Z,10.77
2023-05-25T15:02:42.925Z,8.20
2023-05-25T15:05:09.554Z,7.97
2023-05-25T15:07:35.954Z,8.70
2023-05-25T15:10:02.352Z,12.18
2023-05-25T15:12:28.736Z,9.30
2023-05-25T15:14:55.204Z,10.23
2023-05-25T15:17:21.625Z,11.45
2023-05-25T15:19:48.114Z,12.27
2023-05-25T15:22:14.516Z,10.82
2023-05-25T15:24:40.952Z,14.55
2023-05-25T15:27:07.339Z,10.95
2023-05-25T15:29:33.736Z,11.75
2023-05-25T15:32:00.286Z,8.98
2023-05-25T15:34:26.855Z,8.88
2023-05-25T15:36:53.226Z,12.80
2023-05-25T15:39:19.656Z,13.93
2023-05-25T15:41:46.105Z,12.88
2023-05-25T15:44:12.794Z,11.63
2023-05-25T15:46:40.935Z,12.52
2023-05-25T15:49:11.275Z,10.65
2023-05-25T15:51:46.253Z,10.93
2023-05-25T15:54:15.177Z,12.93
2023-05-25T15:56:41.826Z,9.20
2023-05-25T15:59:37.848Z,9.82
2023-05-25T16:02:04.746Z,11.30
2023-05-25T16:04:31.273Z,12.30
2023-05-25T16:06:59.412Z,9.20
2023-05-25T16:09:26.483Z,10.05
2023-05-25T16:11:52.880Z,9.40
2023-05-25T16:14:19.551Z,10.85
2023-05-25T16:16:46.049Z,9.73
2023-05-25T16:19:14.069Z,7.80
2023-05-25T16:21:40.875Z,9.27
2023-05-25T16:24:07.730Z,8.55
2023-05-25T16:26:35.149Z,9.95
2023-05-25T16:29:02.318Z,8.95
2023-05-25T16:31:28.864Z,9.48
2023-05-25T16:33:55.493Z,9.35
2023-05-25T16:36:21.875Z,9.10
2023-05-25T16:38:48.369Z,8.00
2023-05-25T16:41:14.915Z,9.52
2023-05-25T16:43:41.436Z,9.38
2023-05-25T16:46:07.939Z,8.63
2023-05-25T16:48:34.559Z,8.32
2023-05-25T16:51:01.100Z,9.52
2023-05-25T16:53:27.483Z,8.27
2023-05-25T16:55:53.987Z,8.65
2023-05-25T16:58:20.696Z,9.18
2023-05-25T17:00:47.141Z,9.60
2023-05-25T17:03:13.815Z,11.90
2023-05-25T17:05:40.317Z,8.43
2023-05-25T17:08:06.728Z,11.35
2023-05-25T17:10:33.382Z,9.80
2023-05-25T17:12:59.886Z,9.25
2023-05-25T17:15:26.731Z,10.32
2023-05-25T17:17:53.170Z,10.15
2023-05-25T17:20:19.665Z,9.32
2023-05-25T17:22:46.514Z,9.40
2023-05-25T17:25:12.955Z,9.63
2023-05-25T17:27:39.297Z,10.98
2023-05-25T17:30:06.565Z,11.85
2023-05-25T17:32:32.990Z,12.32
2023-05-25T17:34:59.432Z,11.73
2023-05-25T17:37:25.967Z,12.45
2023-05-25T17:39:52.395Z,10.15
2023-05-25T17:42:18.844Z,12.07
2023-05-25T17:44:45.401Z,10.27
2023-05-25T17:47:11.769Z,9.07
2023-05-25T17:49:38.284Z,9.40
2023-05-25T17:52:04.944Z,9.90
2023-05-25T17:54:31.338Z,11.82
2023-05-25T17:56:57.789Z,11.65
2023-05-25T17:59:24.221Z,10.50
2023-05-25T18:01:51.384Z,11.52
2023-05-25T18:04:19.438Z,9.27
2023-05-25T18:06:46.888Z,10.77
2023-05-25T18:09:13.317Z,8.50
2023-05-25T18:11:39.792Z,9.30
2023-05-25T18:14:06.555Z,10.40
2023-05-25T18:16:33.455Z,14.13
2023-05-25T18:18:59.825Z,11.55
2023-05-25T18:21:26.474Z,10.80
2023-05-25T18:23:52.837Z,10.68
2023-05-25T18:26:19.300Z,10.10
2023-05-25T18:28:45.662Z,11.32
2023-05-25T18:31:12.086Z,9.27
2023-05-25T18:33:40.645Z,12.50
2023-05-25T18:36:07.312Z,12.45
2023-05-25T18:38:33.727Z,13.68
2023-05-25T18:41:00.186Z,13.05
2023-05-25T18:43:26.571Z,11.85
2023-05-25T18:45:53.127Z,12.27
2023-05-25T18:48:19.552Z,12.02
2023-05-25T18:50:46.002Z,10.00
2023-05-25T18:53:13.436Z,14.98
2023-05-25T18:55:39.868Z,10.68
2023-05-25T18:58:06.864Z,13.48
2023-05-25T19:00:33.335Z,14.35
2023-05-25T19:03:00.010Z,10.80
2023-05-25T19:05:26.432Z,13.73
2023-05-25T19:07:59.131Z,13.93
2023-05-25T19:10:26.337Z,13.98
2023-05-25T19:12:52.723Z,14.63
2023-05-25T19:15:19.156Z,15.07
2023-05-25T19:17:46.591Z,17.60
2023-05-25T19:20:13.145Z,17.80
2023-05-25T19:22:40.308Z,13.65
2023-05-25T19:25:07.764Z,12.68
2023-05-25T19:27:34.139Z,19.25
2023-05-25T19:30:00.677Z,12.82
2023-05-25T19:32:27.138Z,16.52
2023-05-25T19:34:53.560Z,14.52
2023-05-25T19:37:19.976Z,17.50
2023-05-25T19:39:46.407Z,14.30
2023-05-25T19:42:12.778Z,12.30
2023-05-25T19:44:40.510Z,13.32
2023-05-25T19:47:07.417Z,16.67
2023-05-25T19:49:33.916Z,14.00
2023-05-25T19:52:00.296Z,15.10
2023-05-25T19:54:26.696Z,16.27
2023-05-25T19:56:53.116Z,17.27
2023-05-25T19:59:21.607Z,18.95
2023-05-25T20:01:48.161Z,19.05
2023-05-25T20:04:14.780Z,17.60
2023-05-25T20:06:41.277Z,15.30
2023-05-25T20:09:11.372Z,16.77
2023-05-25T20:11:37.981Z,14.93
2023-05-25T20:14:04.597Z,18.33
2023-05-25T20:16:31.055Z,16.13
2023-05-25T20:18:57.466Z,16.52
2023-05-25T20:21:24.940Z,16.45
2023-05-25T20:23:51.744Z,17.77
2023-05-25T20:26:18.186Z,19.48
2023-05-25T20:28:44.544Z,14.98
2023-05-25T20:31:10.964Z,16.85
2023-05-25T20:33:37.321Z,18.00
2023-05-25T20:36:03.951Z,22.15
2023-05-25T20:38:30.365Z,19.60
2023-05-25T20:40:56.831Z,22.75
2023-05-25T20:43:23.289Z,23.65
2023-05-25T20:45:49.811Z,16.95
2023-05-25T20:48:17.123Z,20.13
2023-05-25T20:50:43.576Z,21.85
2023-05-25T20:53:10.926Z,16.45
2023-05-25T20:55:37.456Z,21.48
2023-05-25T20:58:03.864Z,23.88
2023-05-25T21:00:30.493Z,26.67
2023-05-25T21:02:57.012Z,23.73
2023-05-25T21:05:23.441Z,18.48
2023-05-25T21:07:51.263Z,21.27
2023-05-25T21:10:17.689Z,18.33
2023-05-25T21:12:44.079Z,23.10
2023-05-25T21:15:10.697Z,17.92
2023-05-25T21:17:37.144Z,27.30
2023-05-25T21:20:03.902Z,25.33
2023-05-25T21:22:30.523Z,28.98
2023-05-25T21:24:57.501Z,31.45
2023-05-25T21:27:23.890Z,27.00
2023-05-25T21:29:50.247Z,29.77
2023-05-25T21:32:16.676Z,21.40
2023-05-25T21:34:43.069Z,25.95
2023-05-25T21:37:09.488Z,27.27
2023-05-25T21:39:35.964Z,23.10
2023-05-25T21:42:03.225Z,21.88
2023-05-25T21:44:29.624Z,31.65
2023-05-25T21:46:56.115Z,28.38
2023-05-25T21:49:22.527Z,31.73
2023-05-25T21:51:48.928Z,30.73
2023-05-25T21:54:15.883Z,32.70
2023-05-25T21:56:42.337Z,29.25
2023-05-25T21:59:08.787Z,38.10
2023-05-25T22:01:35.337Z,33.95
2023-05-25T22:04:01.840Z,38.58
2023-05-25T22:06:28.192Z,35.13
2023-05-25T22:08:54.619Z,39.10
2023-05-25T22:11:22.120Z,38.17
2023-05-25T22:13:48.575Z,35.17
2023-05-25T22:16:15.074Z,36.17
2023-05-25T22:18:41.526Z,36.17
2023-05-25T22:21:07.913Z,34.58
2023-05-25T22:23:34.336Z,31.73
2023-05-25T22:26:00.856Z,31.92
2023-05-25T22:28:27.217Z,27.45
2023-05-25T22:30:53.615Z,27.17
2023-05-25T22:33:20.028Z,32.97
2023-05-25T22:35:46.639Z,24.02
2023-05-25T22:38:13.231Z,32.00
2023-05-25T22:40:39.631Z,25.33
2023-05-25T22:43:12.761Z,28.73
2023-05-25T22:45:40.289Z,25.00
2023-05-25T22:48:07.795Z,27.90
2023-05-25T22:50:34.535Z,29.63
2023-05-25T22:53:00.909Z,23.50
2023-05-25T22:55:27.300Z,27.90
2023-05-25T22:57:53.687Z,31.35
2023-05-25T23:00:20.140Z,31.25
2023-05-25T23:02:46.607Z,24.13
2023-05-25T23:05:13.012Z,25.33
2023-05-25T23:07:39.374Z,25.30
2023-05-25T23:10:06.188Z,29.80
2023-05-25T23:12:32.580Z,24.50
2023-05-25T23:15:01.095Z,24.60
2023-05-25T23:17:27.496Z,28.77
2023-05-25T23:19:54.843Z,29.08
2023-05-25T23:22:21.319Z,23.98
2023-05-25T23:24:47.691Z,22.13
2023-05-25T23:27:14.255Z,24.50
2023-05-25T23:29:40.746Z,26.30
2023-05-25T23:32:07.175Z,23.55
2023-05-25T23:34:33.589Z,27.60
2023-05-25T23:37:00.021Z,26.40
2023-05-25T23:39:26.704Z,26.30
2023-05-25T23:41:53.210Z,23.30
2023-05-25T23:44:19.601Z,24.38
2023-05-25T23:46:45.978Z,25.00
2023-05-25T23:49:12.408Z,23.80
2023-05-25T23:51:38.821Z,28.63
2023-05-25T23:54:06.666Z,24.70
2023-05-25T23:56:33.074Z,28.42
2023-05-25T23:58:59.556Z,27.23
